createdAt,value
2019-05-19T00:02:25.815Z,12.32
2019-05-19T00:04:57.708Z,12.26
2019-05-19T00:07:29.616Z,12.20
2019-05-19T00:10:01.617Z,12.12
2019-05-19T00:12:33.540Z,12.11
2019-05-19T00:15:05.176Z,12.08
2019-05-19T00:17:36.346Z,11.99
2019-05-19T00:20:08.858Z,11.98
2019-05-19T00:22:40.795Z,11.94
2019-05-19T00:25:12.727Z,11.90
2019-05-19T00:27:44.645Z,11.82
2019-05-19T00:30:16.550Z,11.83
2019-05-19T00:32:48.546Z,11.82
2019-05-19T00:35:20.471Z,11.76
2019-05-19T00:37:52.320Z,11.77
2019-05-19T00:40:24.160Z,11.87
2019-05-19T00:42:56.976Z,11.85
2019-05-19T00:45:28.901Z,11.82
2019-05-19T00:48:00.833Z,11.86
2019-05-19T00:50:34.194Z,11.83
2019-05-19T00:53:06.124Z,11.77
2019-05-19T00:55:38.190Z,11.76
2019-05-19T00:58:11.309Z,11.71
2019-05-19T01:00:42.762Z,11.75
2019-05-19T01:03:14.501Z,11.78
2019-05-19T01:05:46.508Z,11.79
2019-05-19T01:08:18.666Z,11.75
2019-05-19T01:10:50.647Z,11.69
2019-05-19T01:13:24.588Z,11.71
2019-05-19T01:15:56.540Z,11.69
2019-05-19T01:18:28.346Z,11.65
2019-05-19T01:21:00.528Z,11.67
2019-05-19T01:23:34.756Z,11.69
2019-05-19T01:26:07.754Z,11.66
2019-05-19T01:28:39.542Z,11.64
2019-05-19T01:31:11.398Z,11.63
2019-05-19T01:33:43.262Z,11.65
2019-05-19T01:36:15.252Z,11.63
2019-05-19T01:38:51.602Z,11.80
2019-05-19T01:41:23.574Z,11.91
2019-05-19T01:43:55.859Z,12.00
2019-05-19T01:46:29.070Z,12.08
2019-05-19T01:49:06.492Z,12.25
2019-05-19T01:51:36.359Z,12.27
2019-05-19T01:54:08.294Z,12.15
2019-05-19T01:56:40.159Z,12.00
2019-05-19T01:59:11.441Z,12.05
2019-05-19T02:01:46.429Z,12.18
2019-05-19T02:04:18.184Z,12.22
2019-05-19T02:06:50.039Z,12.21
2019-05-19T02:09:22.821Z,12.12
2019-05-19T02:11:55.870Z,12.10
2019-05-19T02:14:27.644Z,12.02
2019-05-19T02:17:02.770Z,11.99
2019-05-19T02:19:34.595Z,11.95
2019-05-19T02:22:06.568Z,11.97
2019-05-19T02:24:38.476Z,12.01
2019-05-19T02:27:10.323Z,12.03
2019-05-19T02:29:42.246Z,12.07
2019-05-19T02:32:14.264Z,12.09
2019-05-19T02:34:46.789Z,12.05
2019-05-19T02:37:18.641Z,12.03
2019-05-19T02:39:50.592Z,12.00
2019-05-19T02:42:28.793Z,11.96
2019-05-19T02:45:03.626Z,11.99
2019-05-19T02:47:37.302Z,12.12
2019-05-19T02:50:12.645Z,12.23
2019-05-19T02:52:49.210Z,12.12
2019-05-19T02:55:23.797Z,11.99
2019-05-19T02:58:00.762Z,11.94
2019-05-19T03:00:43.268Z,11.97
2019-05-19T03:03:15.662Z,11.91
2019-05-19T03:05:47.565Z,11.94
2019-05-19T03:08:23.961Z,11.90
2019-05-19T03:10:57.574Z,11.88
2019-05-19T03:13:32.125Z,11.90
2019-05-19T03:16:04.769Z,11.95
2019-05-19T03:18:36.592Z,11.99
2019-05-19T03:21:11.584Z,12.01
2019-05-19T03:23:44.746Z,12.11
2019-05-19T03:26:16.679Z,12.19
2019-05-19T03:28:48.863Z,12.26
2019-05-19T03:31:27.829Z,12.33
2019-05-19T03:34:02.401Z,12.40
2019-05-19T03:36:34.463Z,12.51
2019-05-19T03:39:07.863Z,12.61
2019-05-19T03:41:39.881Z,12.67
2019-05-19T03:44:13.004Z,12.72
2019-05-19T03:46:46.726Z,12.82
2019-05-19T03:49:18.680Z,12.90
2019-05-19T03:51:55.406Z,12.92
2019-05-19T03:54:27.188Z,12.92
2019-05-19T03:56:58.354Z,12.92
2019-05-19T03:59:30.072Z,12.90
2019-05-19T04:02:01.917Z,12.85
2019-05-19T04:04:33.739Z,12.73
2019-05-19T04:07:05.537Z,12.64
2019-05-19T04:09:37.386Z,12.55
2019-05-19T04:12:09.308Z,12.45
2019-05-19T04:14:46.538Z,12.40
2019-05-19T04:17:17.708Z,12.36
2019-05-19T04:19:49.429Z,12.45
2019-05-19T04:22:22.545Z,12.55
2019-05-19T04:24:54.508Z,12.65
2019-05-19T04:27:26.427Z,12.73
2019-05-19T04:29:58.507Z,12.81
2019-05-19T04:32:30.451Z,12.85
2019-05-19T04:35:02.344Z,12.89
2019-05-19T04:37:34.202Z,12.95
2019-05-19T04:40:07.204Z,12.98
2019-05-19T04:42:39.169Z,13.01
2019-05-19T04:45:10.546Z,13.06
2019-05-19T04:47:41.626Z,13.14
2019-05-19T04:50:13.491Z,13.22
2019-05-19T04:52:44.714Z,13.30
2019-05-19T04:55:15.778Z,13.34
2019-05-19T04:57:47.594Z,13.40
2019-05-19T05:00:20.193Z,13.50
2019-05-19T05:02:51.505Z,13.60
2019-05-19T05:05:23.283Z,13.71
2019-05-19T05:07:55.152Z,13.88
2019-05-19T05:10:26.994Z,14.00
2019-05-19T05:12:59.833Z,14.12
2019-05-19T05:15:31.626Z,14.26
2019-05-19T05:18:02.866Z,14.43
2019-05-19T05:20:33.898Z,14.63
2019-05-19T05:23:05.732Z,14.86
2019-05-19T05:25:37.614Z,15.10
2019-05-19T05:28:09.509Z,15.26
2019-05-19T05:30:41.429Z,15.44
2019-05-19T05:33:13.268Z,15.53
2019-05-19T05:35:45.134Z,15.65
2019-05-19T05:38:16.257Z,15.76
2019-05-19T05:40:48.364Z,15.79
2019-05-19T05:43:20.390Z,15.89
2019-05-19T05:45:52.168Z,15.94
2019-05-19T05:48:24.016Z,16.08
2019-05-19T05:50:55.256Z,16.13
2019-05-19T05:53:28.125Z,16.16
2019-05-19T05:56:00.001Z,16.20
2019-05-19T05:58:31.938Z,16.23
2019-05-19T06:01:03.776Z,16.31
2019-05-19T06:03:34.964Z,16.41
2019-05-19T06:06:06.834Z,16.46
2019-05-19T06:08:39.665Z,16.53
2019-05-19T06:11:10.832Z,16.56
2019-05-19T06:13:41.916Z,16.51
2019-05-19T06:16:13.685Z,16.61
2019-05-19T06:18:45.554Z,16.72
2019-05-19T06:21:17.402Z,16.80
2019-05-19T06:23:49.267Z,16.86
2019-05-19T06:26:22.072Z,16.92
2019-05-19T06:28:54.076Z,16.97
2019-05-19T06:31:25.189Z,16.97
2019-05-19T06:33:57.016Z,17.00
2019-05-19T06:36:28.963Z,17.10
2019-05-19T06:39:00.856Z,17.22
2019-05-19T06:41:33.927Z,17.34
2019-05-19T06:44:06.105Z,17.42
2019-05-19T06:46:40.300Z,17.45
2019-05-19T06:50:12.842Z,17.50
2019-05-19T06:52:47.526Z,17.58
2019-05-19T06:55:18.997Z,17.76
2019-05-19T06:57:52.857Z,17.87
2019-05-19T07:00:24.247Z,17.95
2019-05-19T07:02:58.820Z,18.07
2019-05-19T07:05:31.025Z,18.27
2019-05-19T07:08:40.563Z,18.37
2019-05-19T07:11:11.772Z,18.46
2019-05-19T07:13:45.018Z,18.66
2019-05-19T07:16:18.291Z,18.76
2019-05-19T07:18:53.996Z,18.76
2019-05-19T07:21:30.933Z,18.77
2019-05-19T07:24:02.274Z,18.83
2019-05-19T07:26:34.140Z,18.98
2019-05-19T07:29:06.189Z,19.11
2019-05-19T07:31:38.217Z,19.21
2019-05-19T07:34:37.900Z,19.30
2019-05-19T07:37:13.883Z,19.43
2019-05-19T07:39:45.831Z,19.32
2019-05-19T07:42:20.967Z,19.49
2019-05-19T07:44:53.059Z,19.67
2019-05-19T07:47:29.268Z,19.76
2019-05-19T07:50:02.692Z,19.87
2019-05-19T07:52:46.799Z,20.12
2019-05-19T07:55:18.951Z,20.22
2019-05-19T07:57:50.775Z,20.41
2019-05-19T08:00:22.994Z,20.27
2019-05-19T08:02:54.615Z,20.31
2019-05-19T08:09:28.835Z,20.58
2019-05-19T08:19:54.459Z,20.50
2019-05-19T08:22:28.761Z,20.24
2019-05-19T08:25:00.821Z,20.39
2019-05-19T08:27:40.309Z,20.31
2019-05-19T08:30:13.946Z,20.20
2019-05-19T08:32:46.390Z,20.20
2019-05-19T08:35:19.633Z,20.08
2019-05-19T08:37:55.885Z,20.45
2019-05-19T08:40:30.721Z,20.53
2019-05-19T08:43:03.972Z,20.60
2019-05-19T08:45:35.951Z,20.60
2019-05-19T08:48:08.035Z,20.59
2019-05-19T08:50:39.943Z,20.80
2019-05-19T08:53:11.850Z,21.08
2019-05-19T08:55:43.036Z,21.09
2019-05-19T08:58:14.850Z,21.11
2019-05-19T09:00:48.674Z,21.18
2019-05-19T09:03:22.873Z,21.23
2019-05-19T09:05:55.888Z,21.31
2019-05-19T09:08:27.770Z,21.37
2019-05-19T09:11:00.801Z,21.43
2019-05-19T09:13:32.742Z,21.48
2019-05-19T09:16:04.997Z,21.52
2019-05-19T09:18:39.861Z,21.62
2019-05-19T09:21:12.773Z,21.63
2019-05-19T09:23:44.562Z,21.60
2019-05-19T09:26:16.465Z,21.68
2019-05-19T09:28:48.364Z,21.80
2019-05-19T09:31:19.570Z,21.71
2019-05-19T09:33:50.700Z,21.88
2019-05-19T09:36:22.526Z,22.01
2019-05-19T09:38:55.691Z,22.06
2019-05-19T09:41:27.618Z,21.97
2019-05-19T09:43:59.583Z,21.97
2019-05-19T09:46:31.423Z,22.07
2019-05-19T09:49:20.815Z,22.09
2019-05-19T09:51:54.902Z,22.42
2019-05-19T09:54:26.835Z,22.47
2019-05-19T09:56:58.772Z,22.53
2019-05-19T09:59:32.758Z,22.51
2019-05-19T10:02:04.616Z,22.55
2019-05-19T10:14:22.902Z,23.41
2019-05-19T10:16:54.791Z,23.46
2019-05-19T10:19:26.812Z,23.23
2019-05-19T10:21:58.739Z,23.35
2019-05-19T10:24:30.594Z,23.69
2019-05-19T10:27:03.049Z,23.93
2019-05-19T10:29:35.026Z,23.99
2019-05-19T10:32:07.116Z,23.83
2019-05-19T10:34:39.197Z,23.96
2019-05-19T10:37:11.383Z,24.27
2019-05-19T10:39:43.294Z,24.61
2019-05-19T10:42:15.119Z,24.93
2019-05-19T10:44:46.984Z,24.77
2019-05-19T10:47:18.872Z,24.73
2019-05-19T10:49:50.910Z,24.93
2019-05-19T10:52:22.745Z,25.04
2019-05-19T10:54:55.029Z,24.99
2019-05-19T10:57:26.962Z,24.83
2019-05-19T10:59:58.916Z,24.50
2019-05-19T11:02:30.760Z,24.48
2019-05-19T11:05:02.753Z,24.42
2019-05-19T11:07:34.716Z,24.18
2019-05-19T11:10:24.500Z,24.42
2019-05-19T11:13:26.383Z,25.12
2019-05-19T11:16:11.936Z,25.58
2019-05-19T11:18:45.710Z,24.80
2019-05-19T11:21:17.895Z,24.95
2019-05-19T11:23:52.230Z,24.59
2019-05-19T11:26:24.247Z,24.97
2019-05-19T11:28:57.144Z,24.87
2019-05-19T11:31:35.038Z,24.51
2019-05-19T11:34:07.496Z,24.18
2019-05-19T11:36:39.486Z,23.96
2019-05-19T11:39:11.099Z,23.90
2019-05-19T11:41:46.121Z,24.29
2019-05-19T11:44:26.401Z,24.75
2019-05-19T11:46:58.726Z,24.73
2019-05-19T11:49:34.343Z,24.73
2019-05-19T11:52:09.485Z,24.87
2019-05-19T11:54:43.135Z,25.19
2019-05-19T11:57:22.267Z,25.31
2019-05-19T12:00:09.519Z,25.85
2019-05-19T12:02:41.802Z,26.20
2019-05-19T12:05:16.151Z,25.82
2019-05-19T12:07:54.981Z,25.84
2019-05-19T12:10:27.513Z,25.77
2019-05-19T12:13:01.225Z,26.05
2019-05-19T12:15:40.555Z,25.90
2019-05-19T12:18:12.499Z,26.06
2019-05-19T13:58:34.630Z,25.76
2019-05-19T14:01:06.979Z,26.32
2019-05-19T14:03:38.933Z,26.41
2019-05-19T14:06:10.772Z,26.33
2019-05-19T14:08:42.601Z,26.38
2019-05-19T14:11:14.505Z,26.52
2019-05-19T14:13:46.405Z,25.83
2019-05-19T14:16:18.261Z,26.12
2019-05-19T14:18:49.445Z,26.73
2019-05-19T14:21:21.260Z,26.22
2019-05-19T14:23:53.434Z,26.76
2019-05-19T14:26:25.410Z,26.82
2019-05-19T14:28:57.321Z,26.82
2019-05-19T14:31:30.336Z,26.88
2019-05-19T14:34:02.590Z,27.39
2019-05-19T14:36:34.465Z,27.09
2019-05-19T14:39:07.329Z,27.47
2019-05-19T14:41:43.960Z,27.74
2019-05-19T14:44:15.903Z,27.34
2019-05-19T14:46:47.850Z,27.41
2019-05-19T14:49:19.678Z,26.81
2019-05-19T14:51:51.126Z,26.79
2019-05-19T14:54:23.320Z,26.60
2019-05-19T14:57:00.276Z,25.86
2019-05-19T14:59:50.358Z,25.76
2019-05-19T15:02:23.943Z,26.06
2019-05-19T15:05:02.358Z,26.10
2019-05-19T15:07:35.565Z,26.28
2019-05-19T15:10:10.287Z,26.06
2019-05-19T15:12:43.089Z,25.74
2019-05-19T15:15:17.970Z,25.73
2019-05-19T15:18:01.758Z,25.85
2019-05-19T15:20:41.111Z,26.13
2019-05-19T15:23:15.274Z,26.36
2019-05-19T15:25:51.989Z,26.58
2019-05-19T15:28:27.410Z,26.46
2019-05-19T15:30:59.480Z,26.28
2019-05-19T15:33:38.435Z,26.50
2019-05-19T15:36:10.657Z,26.37
2019-05-19T15:38:46.071Z,26.30
2019-05-19T15:41:20.317Z,26.71
2019-05-19T15:44:02.138Z,26.49
2019-05-19T15:46:33.878Z,26.46
2019-05-19T15:49:05.948Z,26.76
2019-05-19T15:51:38.197Z,27.02
2019-05-19T15:54:13.374Z,27.00
2019-05-19T15:56:45.767Z,26.76
2019-05-19T15:59:20.385Z,26.47
2019-05-19T16:01:54.017Z,26.13
2019-05-19T16:04:25.923Z,25.93
2019-05-19T16:07:04.419Z,25.86
2019-05-19T16:10:12.454Z,26.13
2019-05-19T16:12:20.362Z,26.49
2019-05-19T16:15:36.513Z,26.75
2019-05-19T16:18:17.166Z,27.22
2019-05-19T16:21:13.109Z,27.78
2019-05-19T16:23:28.440Z,28.17
2019-05-19T16:26:13.365Z,28.09
2019-05-19T16:29:28.979Z,28.10
2019-05-19T16:31:42.426Z,27.94
2019-05-19T16:34:15.753Z,27.74
2019-05-19T16:37:45.895Z,27.51
2019-05-19T16:39:35.125Z,27.20
2019-05-19T16:42:13.890Z,26.88
2019-05-19T16:44:45.796Z,26.68
2019-05-19T16:47:20.819Z,26.41
2019-05-19T16:49:59.566Z,26.41
2019-05-19T16:52:42.494Z,26.40
2019-05-19T16:57:04.542Z,26.15
2019-05-19T16:58:45.261Z,26.09
2019-05-19T17:01:19.996Z,26.18
2019-05-19T17:03:56.814Z,26.18
2019-05-19T17:06:31.435Z,26.19
2019-05-19T17:09:19.426Z,26.08
2019-05-19T17:11:49.824Z,26.01
2019-05-19T17:14:27.462Z,25.69
2019-05-19T17:19:01.094Z,25.53
2019-05-19T17:20:05.528Z,25.37
2019-05-19T17:22:39.872Z,25.08
2019-05-19T17:25:12.292Z,24.91
2019-05-19T17:27:47.359Z,24.55
2019-05-19T17:30:20.151Z,24.38
2019-05-19T17:32:54.180Z,24.20
2019-05-19T17:35:29.874Z,23.98
2019-05-19T17:38:03.367Z,23.69
2019-05-19T17:40:35.263Z,23.50
2019-05-19T17:43:07.168Z,23.23
2019-05-19T17:45:40.426Z,23.06
2019-05-19T17:48:25.634Z,22.93
2019-05-19T17:50:47.819Z,22.78
2019-05-19T17:53:27.183Z,22.85
2019-05-19T17:55:58.387Z,22.55
2019-05-19T17:58:31.878Z,22.26
2019-05-19T18:01:03.751Z,22.00
2019-05-19T18:03:35.939Z,21.78
2019-05-19T18:06:07.246Z,21.68
2019-05-19T18:08:39.166Z,21.70
2019-05-19T18:11:11.105Z,21.64
2019-05-19T18:13:42.984Z,21.64
2019-05-19T18:16:14.922Z,21.67
2019-05-19T18:18:46.839Z,21.42
2019-05-19T18:21:18.840Z,21.31
2019-05-19T18:23:50.787Z,21.15
2019-05-19T18:26:22.048Z,21.03
2019-05-19T18:28:53.983Z,20.90
2019-05-19T18:31:26.108Z,20.75
2019-05-19T18:33:59.915Z,20.55
2019-05-19T18:36:32.169Z,20.44
2019-05-19T18:39:04.668Z,20.28
2019-05-19T18:41:36.727Z,20.12
2019-05-19T18:44:09.930Z,20.02
2019-05-19T18:46:42.039Z,19.94
2019-05-19T18:49:17.896Z,19.80
2019-05-19T18:51:51.646Z,19.66
2019-05-19T18:54:23.906Z,19.53
2019-05-19T18:56:56.019Z,19.45
2019-05-19T18:59:28.248Z,19.38
2019-05-19T19:02:00.420Z,19.32
2019-05-19T19:04:31.947Z,19.34
2019-05-19T19:07:04.214Z,19.37
2019-05-19T19:09:36.388Z,19.55
2019-05-19T19:12:08.670Z,19.89
2019-05-19T19:14:40.806Z,19.90
2019-05-19T19:17:16.588Z,19.86
2019-05-19T19:19:50.174Z,19.87
2019-05-19T19:22:22.291Z,19.73
2019-05-19T19:24:54.482Z,19.59
2019-05-19T19:27:26.475Z,19.50
2019-05-19T19:30:03.431Z,19.39
2019-05-19T19:32:33.475Z,19.15
2019-05-19T19:35:04.959Z,19.04
2019-05-19T19:37:36.977Z,18.92
2019-05-19T19:40:09.824Z,18.84
2019-05-19T19:42:41.275Z,18.75
2019-05-19T19:45:12.729Z,18.63
2019-05-19T19:47:44.053Z,18.56
2019-05-19T19:50:15.951Z,18.41
2019-05-19T19:52:47.173Z,18.42
2019-05-19T19:55:18.342Z,18.35
2019-05-19T19:57:49.518Z,18.29
2019-05-19T20:00:44.575Z,18.50
2019-05-19T20:03:15.929Z,18.46
2019-05-19T20:05:47.294Z,18.51
2019-05-19T20:08:19.149Z,18.57
2019-05-19T20:10:51.260Z,18.37
2019-05-19T20:13:23.229Z,18.38
2019-05-19T20:15:55.264Z,18.20
2019-05-19T20:18:27.253Z,18.17
2019-05-19T20:20:58.445Z,18.00
2019-05-19T20:23:30.308Z,17.85
2019-05-19T20:26:02.274Z,17.76
2019-05-19T20:28:34.291Z,17.69
2019-05-19T20:31:06.169Z,17.90
2019-05-19T20:33:38.089Z,18.19
2019-05-19T20:36:09.872Z,18.25
2019-05-19T20:38:41.855Z,18.26
2019-05-19T20:41:13.680Z,18.42
2019-05-19T20:43:45.566Z,18.25
2019-05-19T20:46:18.629Z,18.28
2019-05-19T20:48:50.553Z,18.28
2019-05-19T20:51:21.805Z,18.30
2019-05-19T20:53:53.561Z,18.14
2019-05-19T20:56:25.433Z,18.25
2019-05-19T20:58:57.253Z,18.13
2019-05-19T21:01:29.311Z,17.98
2019-05-19T21:04:01.189Z,17.90
2019-05-19T21:06:33.305Z,17.87
2019-05-19T21:09:06.603Z,17.82
2019-05-19T21:11:37.899Z,17.82
2019-05-19T21:14:10.792Z,17.56
2019-05-19T21:16:42.627Z,17.59
2019-05-19T21:19:15.579Z,17.57
2019-05-19T21:21:47.637Z,17.54
2019-05-19T21:24:19.540Z,17.75
2019-05-19T21:26:51.420Z,17.53
2019-05-19T21:29:23.445Z,17.66
2019-05-19T21:31:54.572Z,17.57
2019-05-19T21:34:26.456Z,17.37
2019-05-19T21:36:58.384Z,17.43
2019-05-19T21:39:30.193Z,17.45
2019-05-19T21:42:02.077Z,17.42
2019-05-19T21:44:33.986Z,17.18
2019-05-19T21:47:05.925Z,17.39
2019-05-19T21:49:37.736Z,17.24
2019-05-19T21:52:08.995Z,17.33
2019-05-19T21:54:40.781Z,17.35
2019-05-19T21:57:12.681Z,17.22
2019-05-19T21:59:44.579Z,17.23
2019-05-19T22:02:15.721Z,17.20
2019-05-19T22:04:48.576Z,17.21
2019-05-19T22:07:57.404Z,17.19
2019-05-19T22:10:29.308Z,17.05
2019-05-19T22:13:01.181Z,17.03
2019-05-19T22:15:32.990Z,16.85
2019-05-19T22:18:04.931Z,16.72
2019-05-19T22:20:36.767Z,16.84
2019-05-19T22:23:08.620Z,16.81
2019-05-19T22:25:40.451Z,16.77
2019-05-19T22:28:12.324Z,16.85
2019-05-19T22:30:44.211Z,16.76
2019-05-19T22:33:16.040Z,16.76
2019-05-19T22:35:47.282Z,16.80
2019-05-19T22:38:19.408Z,16.65
2019-05-19T22:40:51.306Z,16.62
2019-05-19T22:43:23.221Z,16.69
2019-05-19T22:45:55.080Z,16.56
2019-05-19T22:48:26.929Z,16.53
2019-05-19T22:50:58.749Z,16.47
2019-05-19T22:53:32.642Z,16.47
2019-05-19T22:56:04.267Z,16.32
2019-05-19T22:58:36.246Z,16.40
2019-05-19T23:01:07.440Z,16.29
2019-05-19T23:03:39.212Z,16.19
2019-05-19T23:06:11.065Z,16.21
2019-05-19T23:08:43.914Z,16.24
2019-05-19T23:11:15.742Z,16.17
2019-05-19T23:13:47.587Z,16.14
2019-05-19T23:16:18.813Z,16.14
2019-05-19T23:18:50.594Z,16.08
2019-05-19T23:21:22.443Z,15.99
2019-05-19T23:23:54.275Z,16.10
2019-05-19T23:26:26.105Z,16.16
2019-05-19T23:28:57.984Z,16.02
2019-05-19T23:31:29.829Z,16.06
2019-05-19T23:34:04.112Z,15.90
2019-05-19T23:36:35.991Z,15.84
2019-05-19T23:39:07.732Z,15.71
2019-05-19T23:41:39.461Z,15.74
2019-05-19T23:44:14.114Z,15.92
2019-05-19T23:46:45.978Z,15.87
2019-05-19T23:49:17.943Z,15.81
2019-05-19T23:51:50.076Z,16.06
2019-05-19T23:54:22.355Z,15.93
2019-05-19T23:56:54.154Z,16.03
2019-05-19T23:59:25.998Z,15.99
